Hunnewell, Missouri
Current Conditions -  °F | °C
As of 10:15 AM on Thursday 18 Dec 2014 (Local Time) from KHAE Reporting Station
Overcast Overcast  
Wind Chill: -1°   Ceiling: 600
Heat Index: -1°   Visibility: 10mi
Dew Point: -4°   Wind: 3mph
Humidity: 80%   Direction: 100°E
Pressure: 30.3"   Gusts: NA
Location:  39.67°N, 91.86°W
Report Text: KHAE 181615Z AUTO 10003KT 10SM BKN006 OVC048 M01/M04 A3030 RMK AO2
Loading
Personal Weather Stations






























Interactive Weather Map New forecast layout! Learn more

10-Day Weather Forecast

Advertisements
Track Severe Weather on mobile